Rechercher aéroport 
image banner adimage banner ad
image banner ad

SNJA - Jardim de Angicos Airport

Situé à Jardim De Angicos, Brazil

ICAO - SNJA, IATA -

Données fournies par Airmate  

Information générale

Coordonnées: S30°8'4" W50°30'35"
Élévation : 42 feet MSL.
Variation magnétique : -17° East
Voir autres Aéroports à Rio Grande do Sul

Données opérationnelles

Accessible au public
Heure actuelle UTC:
Heure actuelle locale:
Météo à : SBCO - Canoas Airport ( 65 km )
METAR: SBCO 271700Z 02010KT 5000 BR FEW030TCU BKN100 23/20 Q1003
TAF: TAF SBCO 270900Z 2712/2724 13006KT 8000 BKN009 BKN030 TX27/2716Z TN16/2722Z BECMG 2714/2716 9999 NSW BKN020 BECMG 2720/2724 SCT020 RMK PEA
Voir NOTAMs / SUP AIP / TFR affectant cet aéroport [VIEW]
Fréquences de communication: [VIEW]

Pistes:

Identifiant RWYQFULongueur (ft)Largeur (ft)SurfaceLDA (ft)
10212559GRASS
28212559GRASS

Coordonnées de l'aéroport

Adresse: Jardim De Angicos Brazil

Vue satellite de SNJA